createdAt,value
2023-02-08T00:08:17.543Z,102888.91
2023-02-08T00:18:22.702Z,102883.97
2023-02-08T00:28:25.538Z,102881.44
2023-02-08T00:38:30.039Z,102874.69
2023-02-08T00:48:33.546Z,102871.41
2023-02-08T00:58:38.318Z,102868.31
2023-02-08T01:08:41.507Z,102862.81
2023-02-08T01:18:48.024Z,102854.56
2023-02-08T01:28:51.699Z,102845.78
2023-02-08T01:38:56.090Z,102841.81
2023-02-08T01:49:02.894Z,102834.66
2023-02-08T01:59:10.343Z,102832.19
2023-02-08T02:09:20.196Z,102828.16
2023-02-08T02:19:33.642Z,102822.50
2023-02-08T02:30:20.240Z,102819.44
2023-02-08T02:40:33.895Z,102818.50
2023-02-08T02:50:42.234Z,102816.28
2023-02-08T03:00:52.775Z,102814.66
2023-02-08T03:11:19.038Z,102811.72
2023-02-08T03:21:34.109Z,102808.38
2023-02-08T03:31:43.486Z,102806.38
2023-02-08T03:41:51.570Z,102804.53
2023-02-08T03:51:58.339Z,102802.38
2023-02-08T04:02:05.965Z,102795.41
2023-02-08T04:12:09.695Z,102795.34
2023-02-08T04:22:14.131Z,102792.63
2023-02-08T04:32:17.048Z,102790.44
2023-02-08T04:42:21.317Z,102788.63
2023-02-08T04:52:24.205Z,102784.50
2023-02-08T05:02:28.994Z,102779.59
2023-02-08T05:12:31.915Z,102775.84
2023-02-08T05:22:36.270Z,102772.03
2023-02-08T05:32:39.799Z,102766.91
2023-02-08T05:42:44.797Z,102763.41
2023-02-08T05:52:47.608Z,102757.38
2023-02-08T06:02:52.061Z,102751.72
2023-02-08T06:12:54.880Z,102747.81
2023-02-08T06:22:59.132Z,102744.25
2023-02-08T06:33:02.065Z,102738.97
2023-02-08T06:43:06.356Z,102734.94
2023-02-08T06:53:09.156Z,102730.84
2023-02-08T07:03:14.253Z,102727.53
2023-02-08T07:13:17.102Z,102723.00
2023-02-08T07:23:21.413Z,102719.31
2023-02-08T07:33:25.029Z,102714.31
2023-02-08T07:43:29.314Z,102708.09
2023-02-08T07:53:33.104Z,102701.69
2023-02-08T08:03:37.406Z,102695.63
2023-02-08T08:13:40.435Z,102688.59
2023-02-08T08:23:45.027Z,102683.03
2023-02-08T08:33:48.640Z,102676.53
2023-02-08T08:43:53.014Z,102670.78
2023-02-08T08:53:56.005Z,102665.59
2023-02-08T09:04:00.411Z,102659.94
2023-02-08T09:14:04.553Z,102654.66
2023-02-08T09:24:09.704Z,102649.00
2023-02-08T09:34:12.672Z,102642.91
2023-02-08T09:44:28.230Z,102637.38
2023-02-08T09:54:36.752Z,102627.00
2023-02-08T10:04:55.847Z,102616.19
2023-02-08T10:15:10.301Z,102600.66
2023-02-08T10:25:46.878Z,102593.69
2023-02-08T10:35:51.353Z,102584.81
2023-02-08T10:46:03.205Z,102576.22
2023-02-08T10:56:08.835Z,102567.53
2023-02-08T11:06:27.388Z,102558.63
2023-02-08T11:16:32.152Z,102550.03
2023-02-08T11:26:39.819Z,102538.78
2023-02-08T11:36:47.148Z,102531.09
2023-02-08T11:46:52.862Z,102522.72
2023-02-08T11:57:04.157Z,102512.19
2023-02-08T12:18:16.415Z,102495.94
2023-02-08T12:28:30.686Z,102491.25
2023-02-08T12:50:00.317Z,102471.00
2023-02-08T13:00:19.945Z,102450.75
2023-02-08T13:10:31.472Z,102444.63
2023-02-08T13:31:07.767Z,102423.19
2023-02-08T13:41:16.954Z,102407.88
2023-02-08T13:51:56.037Z,102404.41
2023-02-08T14:02:29.574Z,102401.34
2023-02-08T14:12:40.379Z,102396.38
2023-02-08T14:22:55.070Z,102389.53
2023-02-08T14:43:40.443Z,102363.78
2023-02-08T14:53:47.599Z,102355.06
2023-02-08T15:04:01.294Z,102341.72
2023-02-08T15:14:06.325Z,102334.91
2023-02-08T15:24:16.524Z,102329.34
2023-02-08T15:34:26.266Z,102324.06
2023-02-08T15:44:37.985Z,102309.88
2023-02-08T15:54:44.015Z,102302.66
2023-02-08T16:04:48.848Z,102294.59
2023-02-08T16:14:53.069Z,102293.66
2023-02-08T16:25:24.029Z,102295.75
2023-02-08T16:35:29.873Z,102298.00
2023-02-08T16:45:34.234Z,102299.69
2023-02-08T16:55:38.581Z,102301.47
2023-02-08T17:05:43.377Z,102301.81
2023-02-08T17:15:47.613Z,102300.50
2023-02-08T17:25:52.574Z,102299.19
2023-02-08T17:35:55.585Z,102298.91
2023-02-08T17:45:59.990Z,102299.34
2023-02-08T17:56:02.940Z,102299.09
2023-02-08T18:06:08.228Z,102297.59
2023-02-08T18:16:13.476Z,102296.78
2023-02-08T18:26:20.576Z,102294.94
2023-02-08T18:36:24.203Z,102293.22
2023-02-08T18:46:31.141Z,102291.19
2023-02-08T18:56:37.264Z,102288.09
2023-02-08T19:06:41.754Z,102285.31
2023-02-08T19:16:45.195Z,102283.00
2023-02-08T19:26:50.477Z,102277.06
2023-02-08T19:36:54.553Z,102272.25
2023-02-08T19:46:58.911Z,102271.22
2023-02-08T19:57:01.919Z,102267.50
2023-02-08T20:07:07.764Z,102263.75
2023-02-08T20:17:11.060Z,102257.25
2023-02-08T20:27:15.555Z,102253.94
2023-02-08T20:37:21.351Z,102251.50
2023-02-08T20:47:26.589Z,102248.53
2023-02-08T20:57:30.960Z,102245.66
2023-02-08T21:07:35.370Z,102241.41
2023-02-08T21:17:40.880Z,102232.81
2023-02-08T21:27:46.900Z,102230.59
2023-02-08T21:37:50.018Z,102227.84
2023-02-08T21:47:55.001Z,102222.81
2023-02-08T21:57:57.968Z,102221.19
2023-02-08T22:08:02.353Z,102219.44
2023-02-08T22:18:05.837Z,102218.34
2023-02-08T22:28:10.455Z,102213.41
2023-02-08T22:38:13.484Z,102212.88
2023-02-08T22:48:21.351Z,102211.09
2023-02-08T22:58:24.433Z,102211.44
2023-02-08T23:08:29.571Z,102211.38
2023-02-08T23:18:32.585Z,102212.53
2023-02-08T23:28:37.343Z,102213.78
2023-02-08T23:38:40.850Z,102216.53
2023-02-08T23:48:47.926Z,102216.09
2023-02-08T23:58:52.598Z,102217.28
